Time;durP1;ratioP1;P1;durP2;ratioP2;P2;SDS_P1;SDS_P2;PMS_P1;PMS_P2;Temp;Humidity;BMP_temperature;BMP_pressure;BME280_temperature;BME280_humidity;BME280_pressure;Samples;Min_cycle;Max_cycle;Signal;HPM_P1;HPM_P2
2023/07/21 00:00:15;;;;;;;3.42;1.40;;;;;;;;;;5012944;28;20053;-68
2023/07/21 00:02:42;;;;;;;4.97;1.33;;;;;;;;;;4995498;28;20084;-68
2023/07/21 00:05:09;;;;;;;2.85;1.30;;;;;;;;;;5012434;28;20049;-69
2023/07/21 00:07:35;;;;;;;4.00;1.80;;;;;;;;;;5013211;28;20026;-69
2023/07/21 00:10:08;;;;;;;3.00;1.42;;;;;;;;;;5013051;28;20041;-68
2023/07/21 00:12:40;;;;;;;3.05;1.30;;;;;;;;;;5012628;28;20029;-69
2023/07/21 00:15:07;;;;;;;3.33;1.52;;;;;;;;;;5012948;28;20022;-69
2023/07/21 00:17:34;;;;;;;6.22;1.88;;;;;;;;;;5012763;28;20161;-69
2023/07/21 00:20:06;;;;;;;4.38;1.50;;;;;;;;;;5012592;28;20025;-69
2023/07/21 00:22:32;;;;;;;3.38;1.50;;;;;;;;;;5012303;28;20022;-69
2023/07/21 00:25:05;;;;;;;2.35;1.30;;;;;;;;;;5012589;28;20140;-69
2023/07/21 00:27:31;;;;;;;2.95;1.40;;;;;;;;;;5012233;28;20072;-69
2023/07/21 00:29:57;;;;;;;3.22;1.80;;;;;;;;;;5012338;28;20053;-69
2023/07/21 00:32:23;;;;;;;4.10;1.85;;;;;;;;;;4994406;28;20464;-69
2023/07/21 00:34:49;;;;;;;3.70;1.67;;;;;;;;;;5012096;28;20483;-68
2023/07/21 00:37:15;;;;;;;5.63;1.52;;;;;;;;;;5011853;28;20042;-69
2023/07/21 00:39:42;;;;;;;2.92;1.52;;;;;;;;;;5012164;28;20476;-68
2023/07/21 00:42:08;;;;;;;4.18;1.90;;;;;;;;;;5011978;28;20022;-70
2023/07/21 00:44:36;;;;;;;5.95;2.00;;;;;;;;;;5012019;28;20574;-68
2023/07/21 00:47:02;;;;;;;3.17;1.48;;;;;;;;;;5011519;28;20238;-70
2023/07/21 00:49:28;;;;;;;5.32;1.75;;;;;;;;;;5011387;28;20046;-69
2023/07/21 00:51:54;;;;;;;4.25;1.60;;;;;;;;;;5011835;28;20022;-69
2023/07/21 00:54:20;;;;;;;4.97;2.05;;;;;;;;;;5012020;28;20029;-70
2023/07/21 00:56:47;;;;;;;3.33;1.83;;;;;;;;;;5011077;28;20033;-69
2023/07/21 00:59:14;;;;;;;4.38;1.88;;;;;;;;;;5012036;28;20495;-69
2023/07/21 01:01:40;;;;;;;3.22;1.67;;;;;;;;;;5012112;28;20072;-70
2023/07/21 01:04:07;;;;;;;2.42;1.30;;;;;;;;;;5011832;28;20073;-69
2023/07/21 01:06:34;;;;;;;4.47;1.70;;;;;;;;;;5011056;28;20029;-70
2023/07/21 01:09:04;;;;;;;3.30;1.48;;;;;;;;;;5011397;28;20030;-69
2023/07/21 01:11:31;;;;;;;4.05;2.08;;;;;;;;;;5011658;28;20070;-69
2023/07/21 01:14:01;;;;;;;3.83;1.90;;;;;;;;;;5011650;28;20104;-69
2023/07/21 01:16:27;;;;;;;4.53;1.73;;;;;;;;;;5011244;28;20117;-69
2023/07/21 01:18:53;;;;;;;3.63;1.73;;;;;;;;;;5011483;28;20117;-69
2023/07/21 01:21:31;;;;;;;5.45;1.80;;;;;;;;;;5011249;28;20101;-69
2023/07/21 01:24:01;;;;;;;4.40;1.73;;;;;;;;;;5011100;28;20045;-69
2023/07/21 01:26:28;;;;;;;3.20;1.83;;;;;;;;;;5010842;28;20018;-69
2023/07/21 01:28:55;;;;;;;4.43;1.90;;;;;;;;;;5011216;28;20079;-69
2023/07/21 01:31:23;;;;;;;3.00;1.48;;;;;;;;;;5010974;28;20022;-69
2023/07/21 01:33:50;;;;;;;3.38;1.67;;;;;;;;;;5011229;28;20029;-69
2023/07/21 01:36:17;;;;;;;3.72;2.00;;;;;;;;;;5011233;28;20120;-69
2023/07/21 01:38:44;;;;;;;3.83;1.90;;;;;;;;;;5010439;28;20132;-68
2023/07/21 01:41:12;;;;;;;3.63;1.60;;;;;;;;;;5010834;28;20107;-69
2023/07/21 01:43:38;;;;;;;5.05;1.65;;;;;;;;;;5010895;28;20030;-70
2023/07/21 01:46:04;;;;;;;4.28;2.08;;;;;;;;;;5011015;28;20109;-70
2023/07/21 01:48:31;;;;;;;3.63;1.48;;;;;;;;;;5010437;28;20468;-70
2023/07/21 01:50:58;;;;;;;3.17;1.50;;;;;;;;;;5010778;28;20026;-68
2023/07/21 01:53:26;;;;;;;3.30;1.80;;;;;;;;;;5010795;28;20180;-68
2023/07/21 01:56:03;;;;;;;5.85;2.08;;;;;;;;;;5011358;28;20384;-69
2023/07/21 01:58:29;;;;;;;2.67;1.30;;;;;;;;;;5010557;28;20038;-68
2023/07/21 02:00:56;;;;;;;3.63;1.90;;;;;;;;;;5010624;28;20022;-68
2023/07/21 02:03:24;;;;;;;3.90;1.88;;;;;;;;;;5010829;28;20022;-68
2023/07/21 02:05:51;;;;;;;5.07;2.03;;;;;;;;;;5010815;28;20030;-68
2023/07/21 02:08:17;;;;;;;3.78;1.95;;;;;;;;;;5010334;28;20022;-68
2023/07/21 02:10:43;;;;;;;4.80;2.00;;;;;;;;;;5010934;28;20026;-68
2023/07/21 02:13:10;;;;;;;3.83;1.77;;;;;;;;;;5010332;28;20490;-68
2023/07/21 02:15:36;;;;;;;5.57;1.98;;;;;;;;;;5010552;28;20475;-68
2023/07/21 02:18:02;;;;;;;3.40;2.05;;;;;;;;;;5010122;28;20073;-68
2023/07/21 02:20:28;;;;;;;3.38;1.65;;;;;;;;;;5010633;28;20395;-68
2023/07/21 02:22:54;;;;;;;3.15;1.92;;;;;;;;;;5010307;28;20427;-68
2023/07/21 02:25:20;;;;;;;3.13;1.60;;;;;;;;;;5009833;28;20017;-68
2023/07/21 02:27:46;;;;;;;3.85;2.08;;;;;;;;;;5010575;28;20388;-68
2023/07/21 02:30:12;;;;;;;3.25;1.90;;;;;;;;;;5009894;28;20034;-68
2023/07/21 02:32:38;;;;;;;5.10;2.08;;;;;;;;;;5010598;28;20099;-68
2023/07/21 02:35:05;;;;;;;3.60;2.00;;;;;;;;;;5009786;28;20026;-69
2023/07/21 02:37:31;;;;;;;3.30;1.63;;;;;;;;;;5010534;28;20034;-68
2023/07/21 02:39:57;;;;;;;3.67;1.90;;;;;;;;;;5010387;28;20038;-69
2023/07/21 02:42:24;;;;;;;5.65;2.00;;;;;;;;;;5010024;28;20109;-69
2023/07/21 02:44:50;;;;;;;3.45;2.10;;;;;;;;;;5010126;28;20515;-68
2023/07/21 02:47:16;;;;;;;5.55;2.47;;;;;;;;;;5010100;28;20026;-68
2023/07/21 02:49:43;;;;;;;4.95;1.80;;;;;;;;;;5009992;28;20026;-69
2023/07/21 02:52:09;;;;;;;6.10;2.47;;;;;;;;;;5009021;28;20048;-69
2023/07/21 02:54:35;;;;;;;4.18;2.50;;;;;;;;;;5009324;28;20050;-69
2023/07/21 02:57:01;;;;;;;5.55;2.05;;;;;;;;;;5008847;28;20472;-69
2023/07/21 02:59:28;;;;;;;3.97;2.40;;;;;;;;;;5008857;28;20030;-69
2023/07/21 03:01:59;;;;;;;3.05;1.65;;;;;;;;;;5011709;28;20048;-68
2023/07/21 03:04:25;;;;;;;4.18;2.03;;;;;;;;;;5013669;28;20136;-68
2023/07/21 03:06:52;;;;;;;4.88;2.38;;;;;;;;;;5012997;28;20040;-68
2023/07/21 03:09:18;;;;;;;4.13;2.13;;;;;;;;;;4995691;28;20061;-68
2023/07/21 03:11:44;;;;;;;3.47;1.83;;;;;;;;;;5012560;28;20030;-69
2023/07/21 03:14:10;;;;;;;4.95;1.95;;;;;;;;;;5013152;28;20037;-69
2023/07/21 03:16:36;;;;;;;4.50;2.17;;;;;;;;;;5012808;28;20058;-69
2023/07/21 03:19:02;;;;;;;3.67;1.90;;;;;;;;;;5012510;28;20033;-69
2023/07/21 03:21:28;;;;;;;4.55;2.30;;;;;;;;;;5012844;28;20030;-69
2023/07/21 03:23:55;;;;;;;6.10;2.60;;;;;;;;;;5012292;28;20033;-69
2023/07/21 03:26:22;;;;;;;4.25;2.15;;;;;;;;;;5012532;28;20476;-69
2023/07/21 03:28:48;;;;;;;4.05;1.92;;;;;;;;;;5012758;28;20026;-69
2023/07/21 03:31:15;;;;;;;3.92;2.08;;;;;;;;;;5012308;28;20022;-69
2023/07/21 03:33:41;;;;;;;3.28;2.08;;;;;;;;;;5012061;28;20026;-69
2023/07/21 03:36:07;;;;;;;3.97;2.40;;;;;;;;;;5012450;28;20026;-69
2023/07/21 03:38:35;;;;;;;2.90;1.90;;;;;;;;;;5012151;28;20433;-68
2023/07/21 03:41:05;;;;;;;5.95;2.03;;;;;;;;;;5012233;28;20407;-68
2023/07/21 03:43:32;;;;;;;5.20;2.22;;;;;;;;;;5012197;28;20022;-69
2023/07/21 03:45:58;;;;;;;6.15;2.20;;;;;;;;;;5012057;28;20472;-68
2023/07/21 03:48:25;;;;;;;4.60;1.95;;;;;;;;;;5011852;28;20022;-68
2023/07/21 03:50:51;;;;;;;5.18;2.15;;;;;;;;;;5012156;28;20123;-67
2023/07/21 03:53:17;;;;;;;4.00;1.98;;;;;;;;;;5011814;28;20030;-69
2023/07/21 03:55:44;;;;;;;4.18;2.42;;;;;;;;;;5011931;28;20037;-68
2023/07/21 03:58:10;;;;;;;5.15;2.25;;;;;;;;;;5011569;28;20046;-69
2023/07/21 04:00:39;;;;;;;9.63;3.85;;;;;;;;;;5011737;28;20030;-69
2023/07/21 04:03:05;;;;;;;5.25;2.05;;;;;;;;;;5011361;28;20033;-68
2023/07/21 04:05:31;;;;;;;4.50;2.22;;;;;;;;;;5011942;28;20040;-69
2023/07/21 04:07:57;;;;;;;3.97;2.03;;;;;;;;;;5011756;28;20022;-68
2023/07/21 04:10:23;;;;;;;3.70;2.10;;;;;;;;;;5011671;28;20029;-68
2023/07/21 04:12:49;;;;;;;3.78;2.50;;;;;;;;;;5010485;28;20025;-68
2023/07/21 04:15:15;;;;;;;5.05;2.17;;;;;;;;;;5011803;28;20029;-69
2023/07/21 04:17:41;;;;;;;3.20;1.90;;;;;;;;;;4993914;28;20040;-68
2023/07/21 04:20:10;;;;;;;6.75;2.58;;;;;;;;;;5011294;28;20029;-69
2023/07/21 04:22:36;;;;;;;3.60;2.20;;;;;;;;;;5011688;28;20026;-68
2023/07/21 04:25:02;;;;;;;5.40;2.47;;;;;;;;;;5011391;28;20030;-67
2023/07/21 04:27:31;;;;;;;2.38;1.77;;;;;;;;;;5011264;28;20112;-68
2023/07/21 04:29:58;;;;;;;4.10;2.00;;;;;;;;;;5011092;28;20555;-68
2023/07/21 04:32:24;;;;;;;3.40;1.90;;;;;;;;;;5011336;28;20112;-68
2023/07/21 04:34:50;;;;;;;3.85;2.13;;;;;;;;;;5011270;28;20104;-68
2023/07/21 04:37:16;;;;;;;3.72;1.95;;;;;;;;;;5011019;28;20038;-67
2023/07/21 04:39:42;;;;;;;5.95;2.53;;;;;;;;;;5011074;28;20080;-68
2023/07/21 04:42:11;;;;;;;3.15;1.77;;;;;;;;;;5011208;28;20034;-68
2023/07/21 04:44:37;;;;;;;4.47;2.50;;;;;;;;;;5010834;28;20045;-68
2023/07/21 04:47:06;;;;;;;5.22;2.05;;;;;;;;;;5011076;28;20064;-68
2023/07/21 04:49:32;;;;;;;4.38;1.90;;;;;;;;;;5011016;28;20026;-69
2023/07/21 04:51:58;;;;;;;5.47;2.22;;;;;;;;;;5011535;28;20491;-68
2023/07/21 04:54:25;;;;;;;5.05;2.00;;;;;;;;;;5010867;28;20101;-68
2023/07/21 04:56:52;;;;;;;4.97;2.10;;;;;;;;;;5010912;28;20459;-69
2023/07/21 04:59:18;;;;;;;6.07;2.20;;;;;;;;;;5011105;28;20376;-69
2023/07/21 05:01:45;;;;;;;4.85;2.33;;;;;;;;;;5011692;28;20022;-69
2023/07/21 05:04:11;;;;;;;3.22;2.22;;;;;;;;;;5011019;28;20030;-68
2023/07/21 05:06:38;;;;;;;3.53;2.20;;;;;;;;;;5010307;28;20026;-68
2023/07/21 05:09:05;;;;;;;4.88;2.58;;;;;;;;;;5010953;28;20033;-68
2023/07/21 05:11:31;;;;;;;5.15;3.00;;;;;;;;;;5010647;28;20030;-68
2023/07/21 05:13:58;;;;;;;6.30;2.38;;;;;;;;;;5010530;28;20773;-69
2023/07/21 05:16:24;;;;;;;3.80;2.38;;;;;;;;;;5010123;28;20033;-68
2023/07/21 05:18:50;;;;;;;6.10;2.67;;;;;;;;;;5010565;28;20037;-68
2023/07/21 05:21:16;;;;;;;5.82;2.72;;;;;;;;;;5009821;28;20204;-69
2023/07/21 05:23:42;;;;;;;4.10;2.58;;;;;;;;;;5010276;28;20126;-68
2023/07/21 05:26:08;;;;;;;4.45;2.22;;;;;;;;;;5009519;28;20090;-69
2023/07/21 05:28:35;;;;;;;4.82;2.72;;;;;;;;;;5010542;28;20021;-69
2023/07/21 05:31:01;;;;;;;6.75;3.30;;;;;;;;;;5010501;28;20022;-69
2023/07/21 05:33:27;;;;;;;3.88;2.65;;;;;;;;;;5010264;28;20446;-69
2023/07/21 05:35:53;;;;;;;5.25;2.38;;;;;;;;;;5010815;28;20475;-68
2023/07/21 05:38:19;;;;;;;4.63;2.90;;;;;;;;;;5009769;28;20063;-68
2023/07/21 05:40:56;;;;;;;6.13;2.58;;;;;;;;;;5009997;28;20543;-68
2023/07/21 05:43:22;;;;;;;5.20;2.78;;;;;;;;;;5010042;28;20052;-68
2023/07/21 05:45:48;;;;;;;6.13;2.30;;;;;;;;;;5010320;28;20060;-68
2023/07/21 05:48:14;;;;;;;4.75;2.42;;;;;;;;;;5009296;28;20613;-69
2023/07/21 05:50:40;;;;;;;3.78;2.30;;;;;;;;;;5009859;28;20030;-69
2023/07/21 05:53:07;;;;;;;6.05;2.58;;;;;;;;;;5010516;28;20095;-69
2023/07/21 05:55:33;;;;;;;4.65;2.47;;;;;;;;;;5010220;28;20034;-70
2023/07/21 05:57:59;;;;;;;3.53;2.20;;;;;;;;;;5010025;28;20167;-70
2023/07/21 06:00:25;;;;;;;4.22;2.40;;;;;;;;;;4992323;28;20050;-73
2023/07/21 06:02:51;;;;;;;3.97;2.03;;;;;;;;;;5009322;28;20076;-74
2023/07/21 06:05:17;;;;;;;3.55;2.00;;;;;;;;;;5010054;28;20451;-74
2023/07/21 06:07:44;;;;;;;3.53;1.92;;;;;;;;;;5009358;28;20063;-74
2023/07/21 06:10:13;;;;;;;5.35;2.78;;;;;;;;;;5010402;28;20112;-74
2023/07/21 06:12:39;;;;;;;4.30;2.63;;;;;;;;;;5009481;28;20022;-75
2023/07/21 06:15:06;;;;;;;5.07;2.78;;;;;;;;;;4992048;28;20061;-74
2023/07/21 06:17:32;;;;;;;6.53;2.83;;;;;;;;;;5009674;28;20048;-74
2023/07/21 06:19:58;;;;;;;5.18;2.47;;;;;;;;;;5008755;28;20494;-73
2023/07/21 06:22:24;;;;;;;3.72;2.40;;;;;;;;;;5007939;28;20057;-74
2023/07/21 06:24:50;;;;;;;4.70;3.13;;;;;;;;;;5009125;28;20505;-74
2023/07/21 06:27:17;;;;;;;4.68;2.70;;;;;;;;;;5009201;28;20033;-75
2023/07/21 06:29:43;;;;;;;8.10;3.50;;;;;;;;;;5009326;28;20064;-74
2023/07/21 06:32:09;;;;;;;4.15;2.53;;;;;;;;;;5008562;28;20456;-74
2023/07/21 06:34:35;;;;;;;4.85;2.55;;;;;;;;;;5008034;28;20022;-74
2023/07/21 06:37:02;;;;;;;6.03;3.25;;;;;;;;;;5007399;28;20061;-73
2023/07/21 06:39:28;;;;;;;5.55;2.80;;;;;;;;;;5008884;28;20038;-74
2023/07/21 06:41:54;;;;;;;5.35;2.80;;;;;;;;;;4991745;28;20071;-74
2023/07/21 06:44:21;;;;;;;4.28;2.58;;;;;;;;;;5009235;28;20057;-73
2023/07/21 06:46:49;;;;;;;6.28;2.70;;;;;;;;;;5009381;28;20030;-74
2023/07/21 06:49:16;;;;;;;4.10;2.30;;;;;;;;;;5008987;28;20022;-73
2023/07/21 06:51:42;;;;;;;5.68;2.42;;;;;;;;;;5009023;28;20057;-74
2023/07/21 06:54:09;;;;;;;2.63;1.30;;;;;;;;;;5008946;28;20022;-74
2023/07/21 06:56:35;;;;;;;3.35;1.92;;;;;;;;;;5008793;28;20015;-73
2023/07/21 06:59:02;;;;;;;4.57;1.50;;;;;;;;;;5008677;28;20103;-74
2023/07/21 07:01:28;;;;;;;3.42;1.63;;;;;;;;;;5009341;28;20033;-73
2023/07/21 07:03:55;;;;;;;3.70;2.20;;;;;;;;;;5009329;28;20026;-75
2023/07/21 07:06:22;;;;;;;3.63;1.60;;;;;;;;;;5009606;28;20393;-74
2023/07/21 07:08:48;;;;;;;3.38;1.52;;;;;;;;;;5008483;28;20026;-74
2023/07/21 07:11:14;;;;;;;2.47;1.48;;;;;;;;;;5009482;28;20050;-74
2023/07/21 07:13:40;;;;;;;1.40;0.82;;;;;;;;;;5009151;28;20057;-75
2023/07/21 07:16:06;;;;;;;2.33;0.98;;;;;;;;;;5009145;28;20474;-75
2023/07/21 07:18:32;;;;;;;2.35;0.88;;;;;;;;;;5008531;28;20492;-75
2023/07/21 07:20:58;;;;;;;1.95;0.98;;;;;;;;;;5009519;28;20068;-75
2023/07/21 07:23:24;;;;;;;2.78;0.88;;;;;;;;;;5008651;28;20029;-74
2023/07/21 07:25:52;;;;;;;2.58;0.95;;;;;;;;;;5008969;28;20030;-75
2023/07/21 07:28:19;;;;;;;3.05;1.02;;;;;;;;;;5009739;28;20380;-75
2023/07/21 07:30:45;;;;;;;3.67;1.08;;;;;;;;;;5008652;28;20026;-72
2023/07/21 07:33:11;;;;;;;2.70;0.90;;;;;;;;;;5008824;28;20041;-75
2023/07/21 07:35:41;;;;;;;4.22;1.30;;;;;;;;;;5008640;28;20029;-74
2023/07/21 07:38:07;;;;;;;2.78;1.13;;;;;;;;;;5008409;28;20034;-73
2023/07/21 07:40:33;;;;;;;3.13;0.93;;;;;;;;;;5008883;28;20037;-73
2023/07/21 07:42:59;;;;;;;5.20;1.33;;;;;;;;;;5008427;28;20554;-74
2023/07/21 07:45:25;;;;;;;2.33;0.98;;;;;;;;;;5008932;28;20181;-74
2023/07/21 07:47:52;;;;;;;2.33;0.70;;;;;;;;;;5009584;28;20026;-74
2023/07/21 07:50:20;;;;;;;2.47;1.00;;;;;;;;;;5012253;28;20380;-73
2023/07/21 07:52:46;;;;;;;2.35;1.10;;;;;;;;;;5010989;28;20034;-72
2023/07/21 07:55:12;;;;;;;2.50;1.50;;;;;;;;;;5010175;28;20033;-73
2023/07/21 07:57:38;;;;;;;2.78;1.00;;;;;;;;;;5010798;28;20442;-73
2023/07/21 08:00:08;;;;;;;2.80;1.13;;;;;;;;;;5010785;28;20379;-75
2023/07/21 08:02:34;;;;;;;1.70;1.05;;;;;;;;;;5010769;28;20018;-74
2023/07/21 08:05:00;;;;;;;2.72;1.10;;;;;;;;;;5010716;28;20034;-74
2023/07/21 08:07:26;;;;;;;2.05;0.70;;;;;;;;;;5009798;28;20092;-73
2023/07/21 08:09:52;;;;;;;3.45;0.85;;;;;;;;;;5011669;28;20492;-73
2023/07/21 08:12:18;;;;;;;2.95;1.40;;;;;;;;;;5011740;28;20018;-74
2023/07/21 08:14:44;;;;;;;3.00;1.38;;;;;;;;;;5011355;28;20034;-74
2023/07/21 08:17:10;;;;;;;2.65;1.23;;;;;;;;;;5011039;28;20037;-74
2023/07/21 08:19:36;;;;;;;3.22;1.10;;;;;;;;;;5011413;28;20030;-74
2023/07/21 08:22:05;;;;;;;2.97;1.00;;;;;;;;;;5011384;28;20030;-73
2023/07/21 08:24:31;;;;;;;2.78;1.20;;;;;;;;;;5011283;28;20709;-73
2023/07/21 08:26:59;;;;;;;3.50;1.60;;;;;;;;;;5011285;28;20395;-74
2023/07/21 08:29:25;;;;;;;3.63;1.33;;;;;;;;;;5009704;28;20033;-74
2023/07/21 08:31:51;;;;;;;4.80;2.25;;;;;;;;;;5009655;28;20048;-73
2023/07/21 08:34:18;;;;;;;3.42;1.25;;;;;;;;;;5009788;28;20468;-74
2023/07/21 08:36:44;;;;;;;2.92;1.33;;;;;;;;;;5009795;28;20041;-74
2023/07/21 08:39:10;;;;;;;4.25;1.75;;;;;;;;;;5009774;28;20057;-73
2023/07/21 08:41:45;;;;;;;3.75;1.77;;;;;;;;;;4992574;28;20391;-73
2023/07/21 08:44:11;;;;;;;4.25;1.80;;;;;;;;;;5010521;28;20046;-75
2023/07/21 08:46:37;;;;;;;4.78;1.13;;;;;;;;;;5010860;28;20080;-75
2023/07/21 08:49:05;;;;;;;3.25;1.45;;;;;;;;;;5010852;28;20105;-75
2023/07/21 08:51:31;;;;;;;5.47;1.70;;;;;;;;;;5010750;28;20026;-76
2023/07/21 08:53:57;;;;;;;3.58;1.80;;;;;;;;;;4993154;28;20036;-74
2023/07/21 08:56:24;;;;;;;2.03;1.00;;;;;;;;;;5010575;28;20036;-74
2023/07/21 08:58:50;;;;;;;3.13;1.58;;;;;;;;;;5010532;28;20615;-74
2023/07/21 09:01:16;;;;;;;3.67;2.20;;;;;;;;;;5011300;28;20360;-74
2023/07/21 09:03:46;;;;;;;3.42;1.80;;;;;;;;;;5011185;28;20678;-74
2023/07/21 09:06:15;;;;;;;3.70;1.52;;;;;;;;;;5010862;28;20026;-73
2023/07/21 09:08:41;;;;;;;2.33;1.38;;;;;;;;;;5010178;28;20168;-73
2023/07/21 09:11:08;;;;;;;3.05;1.67;;;;;;;;;;5010513;28;20388;-73
2023/07/21 09:13:34;;;;;;;5.18;2.63;;;;;;;;;;4992701;28;20026;-73
2023/07/21 09:16:01;;;;;;;4.22;1.90;;;;;;;;;;5010414;28;20029;-74
2023/07/21 09:18:31;;;;;;;2.92;1.35;;;;;;;;;;5010154;28;20136;-73
2023/07/21 09:20:58;;;;;;;5.35;2.00;;;;;;;;;;4993023;28;20060;-74
2023/07/21 09:23:26;;;;;;;2.88;1.30;;;;;;;;;;5010424;28;20022;-74
2023/07/21 09:25:56;;;;;;;2.97;1.55;;;;;;;;;;5010088;28;20034;-72
2023/07/21 09:28:22;;;;;;;;;;;;;;;;;;5010890;28;20034;-74
2023/07/21 09:30:50;;;;;;;5.28;2.38;;;;;;;;;;5009725;28;19905;-74
2023/07/21 09:33:16;;;;;;;5.38;1.50;;;;;;;;;;5010016;28;20392;-73
2023/07/21 09:35:42;;;;;;;3.30;1.30;;;;;;;;;;5010795;28;20026;-72
2023/07/21 09:38:12;;;;;;;3.20;1.92;;;;;;;;;;5009820;28;20477;-73
2023/07/21 09:40:42;;;;;;;3.13;1.60;;;;;;;;;;4992504;28;20042;-73
2023/07/21 09:43:09;;;;;;;2.88;1.65;;;;;;;;;;5010112;28;20033;-74
2023/07/21 09:45:36;;;;;;;2.03;1.25;;;;;;;;;;5009982;28;20050;-73
2023/07/21 09:48:03;;;;;;;2.55;1.05;;;;;;;;;;4992385;28;20074;-73
2023/07/21 09:50:30;;;;;;;5.32;2.03;;;;;;;;;;5010105;28;20022;-73
2023/07/21 09:52:56;;;;;;;3.95;1.85;;;;;;;;;;5009400;28;20035;-73
2023/07/21 09:55:23;;;;;;;3.13;1.40;;;;;;;;;;5009564;28;20513;-73
2023/07/21 09:57:49;;;;;;;4.28;1.38;;;;;;;;;;5009432;28;20430;-75
2023/07/21 10:00:16;;;;;;;1.50;0.90;;;;;;;;;;5009983;28;20022;-72
2023/07/21 10:02:46;;;;;;;3.17;0.98;;;;;;;;;;5009730;28;20022;-73
2023/07/21 10:05:13;;;;;;;4.53;0.93;;;;;;;;;;5009570;28;20030;-73
2023/07/21 10:07:42;;;;;;;2.83;1.20;;;;;;;;;;5009968;28;20052;-72
2023/07/21 10:10:09;;;;;;;1.92;0.85;;;;;;;;;;4991066;28;20029;-75
2023/07/21 10:12:43;;;;;;;3.45;1.30;;;;;;;;;;5009549;28;20025;-74
2023/07/21 10:15:14;;;;;;;3.53;1.58;;;;;;;;;;5009398;28;20025;-74
2023/07/21 10:17:58;;;;;;;2.75;1.10;;;;;;;;;;5009723;28;20119;-74
2023/07/21 10:20:37;;;;;;;3.50;1.70;;;;;;;;;;5009493;28;20037;-70
2023/07/21 10:23:03;;;;;;;4.13;1.60;;;;;;;;;;5009601;28;20025;-70
2023/07/21 10:25:29;;;;;;;2.78;1.35;;;;;;;;;;5009329;28;20033;-71
2023/07/21 10:28:02;;;;;;;3.45;1.35;;;;;;;;;;5008592;28;20041;-72
2023/07/21 10:30:28;;;;;;;4.25;1.75;;;;;;;;;;5009408;28;20030;-71
2023/07/21 10:32:54;;;;;;;5.88;1.80;;;;;;;;;;5009216;28;20075;-70
2023/07/21 10:35:39;;;;;;;4.95;2.30;;;;;;;;;;5009592;28;20042;-72
2023/07/21 10:38:11;;;;;;;3.92;2.15;;;;;;;;;;5008446;28;20030;-70
2023/07/21 10:40:38;;;;;;;6.63;2.47;;;;;;;;;;5008925;28;20056;-70
2023/07/21 10:43:04;;;;;;;8.90;2.65;;;;;;;;;;5009099;28;20046;-70
2023/07/21 10:45:30;;;;;;;5.10;2.40;;;;;;;;;;5008941;28;20057;-71
2023/07/21 10:47:56;;;;;;;5.45;2.13;;;;;;;;;;5008850;28;20026;-71
2023/07/21 10:50:23;;;;;;;6.28;2.35;;;;;;;;;;5009407;28;20026;-72
2023/07/21 10:52:49;;;;;;;3.60;1.95;;;;;;;;;;5008955;28;20026;-70
2023/07/21 10:55:19;;;;;;;3.42;1.73;;;;;;;;;;5009443;28;20026;-72
2023/07/21 10:57:45;;;;;;;4.25;1.83;;;;;;;;;;4991463;28;20042;-72
2023/07/21 11:00:12;;;;;;;5.65;2.35;;;;;;;;;;5008491;28;20022;-71
2023/07/21 11:02:41;;;;;;;3.92;1.88;;;;;;;;;;5008997;28;20611;-72
2023/07/21 11:05:07;;;;;;;3.47;1.63;;;;;;;;;;5009698;28;20480;-72
2023/07/21 11:07:33;;;;;;;3.17;1.33;;;;;;;;;;5008707;28;20478;-72
2023/07/21 11:10:00;;;;;;;4.43;1.73;;;;;;;;;;5009175;28;20428;-72
2023/07/21 11:12:26;;;;;;;3.20;1.40;;;;;;;;;;5009075;28;20018;-71
2023/07/21 11:14:55;;;;;;;1.88;0.85;;;;;;;;;;5009049;28;20061;-72
2023/07/21 11:17:21;;;;;;;1.53;0.70;;;;;;;;;;5009021;28;20391;-73
2023/07/21 11:19:47;;;;;;;2.08;0.95;;;;;;;;;;5008860;28;20129;-71
2023/07/21 11:22:13;;;;;;;2.63;1.05;;;;;;;;;;5010105;28;20045;-70
2023/07/21 11:24:39;;;;;;;2.00;0.80;;;;;;;;;;5013091;28;20188;-72
2023/07/21 11:27:06;;;;;;;2.60;0.90;;;;;;;;;;5012403;28;20377;-71
2023/07/21 11:29:35;;;;;;;3.20;1.00;;;;;;;;;;5012263;28;20026;-69
2023/07/21 11:32:03;;;;;;;2.47;1.33;;;;;;;;;;5013017;28;20064;-71
2023/07/21 11:34:29;;;;;;;3.97;1.58;;;;;;;;;;5012963;28;20032;-71
2023/07/21 11:36:58;;;;;;;2.85;1.10;;;;;;;;;;5012755;28;20034;-72
2023/07/21 11:39:24;;;;;;;4.28;1.45;;;;;;;;;;5012722;28;20065;-70
2023/07/21 11:41:52;;;;;;;2.67;1.15;;;;;;;;;;5012392;28;20387;-72
2023/07/21 11:44:27;;;;;;;3.55;1.45;;;;;;;;;;5011508;28;20133;-72
2023/07/21 11:46:54;;;;;;;2.78;1.00;;;;;;;;;;5013271;28;20022;-71
2023/07/21 11:49:21;;;;;;;2.33;1.30;;;;;;;;;;5013026;28;20038;-70
2023/07/21 11:51:47;;;;;;;2.78;1.23;;;;;;;;;;5012420;28;20084;-70
2023/07/21 11:54:20;;;;;;;2.88;1.10;;;;;;;;;;5011666;28;20088;-71
2023/07/21 11:56:46;;;;;;;3.00;1.52;;;;;;;;;;5011457;28;20088;-73
2023/07/21 11:59:12;;;;;;;3.03;1.20;;;;;;;;;;5011595;28;20511;-71
2023/07/21 12:01:39;;;;;;;2.45;1.77;;;;;;;;;;5011829;28;20476;-70
2023/07/21 12:04:05;;;;;;;4.35;1.60;;;;;;;;;;5011684;28;20029;-72
2023/07/21 12:06:31;;;;;;;3.38;1.52;;;;;;;;;;5012431;28;20050;-70
2023/07/21 12:08:58;;;;;;;7.97;1.80;;;;;;;;;;5012039;28;20034;-71
2023/07/21 12:11:25;;;;;;;5.13;2.30;;;;;;;;;;5012500;28;20022;-73
2023/07/21 12:13:51;;;;;;;2.28;1.45;;;;;;;;;;4994702;28;20030;-72
2023/07/21 12:16:17;;;;;;;4.65;1.10;;;;;;;;;;5012122;28;20088;-71
2023/07/21 12:18:43;;;;;;;1.90;0.93;;;;;;;;;;5012575;28;20062;-70
2023/07/21 12:21:09;;;;;;;1.58;0.70;;;;;;;;;;5011819;28;20025;-72
2023/07/21 12:23:36;;;;;;;2.33;1.20;;;;;;;;;;5011339;28;20022;-70
2023/07/21 12:26:02;;;;;;;3.17;1.05;;;;;;;;;;5011824;28;20036;-70
2023/07/21 12:28:28;;;;;;;3.40;1.02;;;;;;;;;;5012013;28;20037;-71
2023/07/21 12:30:54;;;;;;;3.75;1.27;;;;;;;;;;5011588;28;20053;-71
2023/07/21 12:33:20;;;;;;;2.40;0.90;;;;;;;;;;5011227;28;20033;-70
2023/07/21 12:35:47;;;;;;;3.50;1.10;;;;;;;;;;5011419;28;20095;-72
2023/07/21 12:38:13;;;;;;;2.40;1.10;;;;;;;;;;5011099;28;20056;-71
2023/07/21 12:40:40;;;;;;;3.83;1.15;;;;;;;;;;5011594;28;20025;-72
2023/07/21 12:43:07;;;;;;;1.40;0.73;;;;;;;;;;5012101;28;20118;-72
2023/07/21 12:45:33;;;;;;;1.88;0.60;;;;;;;;;;5011074;28;20381;-70
2023/07/21 12:47:59;;;;;;;2.05;1.10;;;;;;;;;;5011371;28;20391;-71
2023/07/21 12:50:25;;;;;;;2.08;1.00;;;;;;;;;;5010874;28;20030;-70
2023/07/21 12:52:51;;;;;;;2.95;0.98;;;;;;;;;;5011475;28;20054;-71
2023/07/21 12:55:17;;;;;;;2.65;1.20;;;;;;;;;;5011220;28;20441;-72
2023/07/21 12:57:43;;;;;;;4.13;1.65;;;;;;;;;;5010849;28;20030;-71
2023/07/21 13:00:13;;;;;;;4.05;2.15;;;;;;;;;;5011383;28;20080;-70
2023/07/21 13:02:42;;;;;;;4.50;1.75;;;;;;;;;;5010724;28;20029;-71
2023/07/21 13:05:11;;;;;;;4.03;1.48;;;;;;;;;;5010695;28;20026;-72
2023/07/21 13:07:39;;;;;;;3.67;1.83;;;;;;;;;;5011181;28;20022;-70
2023/07/21 13:10:05;;;;;;;3.35;1.55;;;;;;;;;;5010790;28;20053;-71
2023/07/21 13:12:32;;;;;;;4.80;2.00;;;;;;;;;;5010502;28;20415;-72
2023/07/21 13:14:58;;;;;;;4.38;1.95;;;;;;;;;;5010998;28;20090;-74
2023/07/21 13:17:24;;;;;;;3.83;1.80;;;;;;;;;;5010775;28;20022;-74
2023/07/21 13:19:50;;;;;;;5.10;2.33;;;;;;;;;;5010904;28;20022;-73
2023/07/21 13:22:16;;;;;;;2.60;1.30;;;;;;;;;;5010402;28;20022;-72
2023/07/21 13:24:43;;;;;;;3.67;1.58;;;;;;;;;;5010673;28;20022;-73
2023/07/21 13:27:09;;;;;;;3.80;1.75;;;;;;;;;;5010683;28;20069;-72
2023/07/21 13:29:35;;;;;;;3.92;1.83;;;;;;;;;;5010652;28;20068;-71
2023/07/21 13:32:01;;;;;;;6.05;2.33;;;;;;;;;;5010288;28;20085;-72
2023/07/21 13:34:27;;;;;;;3.90;1.92;;;;;;;;;;5010203;28;20046;-72
2023/07/21 13:36:54;;;;;;;4.57;2.03;;;;;;;;;;5009862;28;20018;-71
2023/07/21 13:39:20;;;;;;;3.17;1.77;;;;;;;;;;5010262;28;20073;-73
2023/07/21 13:41:47;;;;;;;4.65;1.88;;;;;;;;;;5010423;28;20057;-71
2023/07/21 13:44:13;;;;;;;4.57;2.13;;;;;;;;;;5009961;28;20050;-72
2023/07/21 13:46:39;;;;;;;3.38;1.90;;;;;;;;;;5008335;28;20026;-72
2023/07/21 13:49:06;;;;;;;4.20;2.15;;;;;;;;;;5008022;28;20052;-72
2023/07/21 13:51:32;;;;;;;4.57;1.80;;;;;;;;;;5008091;28;20034;-72
2023/07/21 13:53:58;;;;;;;8.60;3.40;;;;;;;;;;5008141;28;20018;-72
2023/07/21 13:56:25;;;;;;;4.90;2.08;;;;;;;;;;5007733;28;20105;-73
2023/07/21 13:58:51;;;;;;;6.15;3.00;;;;;;;;;;5008334;28;20034;-72
2023/07/21 14:01:17;;;;;;;4.97;2.88;;;;;;;;;;5008264;28;20033;-72
2023/07/21 14:03:46;;;;;;;3.90;2.00;;;;;;;;;;5008771;28;20061;-70
2023/07/21 14:06:12;;;;;;;6.30;3.72;;;;;;;;;;5008888;28;20034;-71
2023/07/21 14:08:39;;;;;;;6.32;3.60;;;;;;;;;;5009853;28;20415;-71
2023/07/21 14:11:05;;;;;;;7.03;4.28;;;;;;;;;;5008974;28;20022;-73
2023/07/21 14:13:31;;;;;;;6.35;3.60;;;;;;;;;;5009529;28;20034;-72
2023/07/21 14:15:57;;;;;;;6.25;3.72;;;;;;;;;;5009705;28;20037;-71
2023/07/21 14:18:23;;;;;;;5.97;2.75;;;;;;;;;;5008911;28;20061;-71
2023/07/21 14:20:50;;;;;;;4.95;3.13;;;;;;;;;;4992164;28;20092;-73
2023/07/21 14:23:16;;;;;;;5.45;3.30;;;;;;;;;;5009679;28;20076;-71
2023/07/21 14:25:42;;;;;;;5.78;3.53;;;;;;;;;;5009615;28;20022;-72
2023/07/21 14:28:08;;;;;;;4.35;2.67;;;;;;;;;;5008952;28;20033;-72
2023/07/21 14:30:35;;;;;;;3.70;2.00;;;;;;;;;;5009323;28;20026;-73
2023/07/21 14:33:01;;;;;;;4.10;2.08;;;;;;;;;;5009983;28;20025;-72
2023/07/21 14:35:27;;;;;;;6.18;1.88;;;;;;;;;;5009579;28;20030;-72
2023/07/21 14:37:53;;;;;;;4.10;1.80;;;;;;;;;;5009218;28;20034;-71
2023/07/21 14:40:19;;;;;;;5.32;1.58;;;;;;;;;;5009861;28;20034;-72